»·PEaware :: UAL399 KLAS-KSFO

UAL399 :: KLAS-KSFO

FLIGHT INFORMATION

Flight Status: Arrived
Operator:
United Airlines
More flights by this operator :: More flights under this callsign
Pilot: Alfredo R. (12181)
Aircraft: BOEING 737-800
(B738)
More flights by this aircraft type
Origin: KLAS McCarran Intl
United States
Destination: KSFO San Francisco Intl
United States
More flights between these airports :: More routes between these airports
Route: SHEAD1 KENNO RUSME DYAMD4
File this flight plan on PilotEdge
Remarks:
Altitude:
(Current/Filed)
34,000ft
Speed:
(Current/Filed)
425kts
Departed: 14-Nov-18 08:40 PM
Arrived: 14-Nov-18 09:52 PM
Distance/Time
Traveled:
359nm/1:12
Distance/Time
To Go:
Arrived

Flight Plot

Page will automatically refresh every two minutes.

Flight plan parsing failed; only flown route is shown


Map Options




Map Legend


Flown Route
Filed Route
Departure Airport
Arrival Airport
Navaid (VOR, NDB)
Fix

Horizontal Profiles

Position Reports

Time Latitude Longitude Heading Altitude Ground
Speed
14-Nov-18 20:16 36.082952 -115.138746 226 2064ft 0kts
14-Nov-18 20:17 36.082952 -115.138746 226 2064ft 0kts
14-Nov-18 20:18 36.082952 -115.138746 226 2064ft 0kts
14-Nov-18 20:19 36.082952 -115.138746 226 2064ft 0kts
14-Nov-18 20:20 36.082952 -115.138746 226 2064ft 0kts
14-Nov-18 20:21 36.082952 -115.138746 226 2064ft 0kts
14-Nov-18 20:22 36.082952 -115.138746 226 2064ft 0kts
14-Nov-18 20:23 36.082952 -115.138746 226 2064ft 0kts
14-Nov-18 20:24 36.082957 -115.138740 227 2064ft 0kts
14-Nov-18 20:25 36.083360 -115.138251 228 2061ft 2kts
14-Nov-18 20:26 36.083883 -115.137959 192 2060ft 2kts
14-Nov-18 20:27 36.084209 -115.137458 269 2058ft 0kts
14-Nov-18 20:28 36.084197 -115.139406 269 2064ft 6kts
14-Nov-18 20:29 36.084195 -115.139730 269 2065ft 0kts
14-Nov-18 20:30 36.084195 -115.139730 269 2065ft 0kts
14-Nov-18 20:31 36.084195 -115.139730 269 2065ft 0kts
14-Nov-18 20:32 36.084195 -115.139730 269 2065ft 0kts
14-Nov-18 20:33 36.084140 -115.140435 250 2067ft 7kts
14-Nov-18 20:34 36.081994 -115.142323 156 2076ft 11kts
14-Nov-18 20:35 36.078725 -115.141644 179 2083ft 9kts
14-Nov-18 20:36 36.078240 -115.137572 89 2072ft 18kts
14-Nov-18 20:37 36.078246 -115.130419 91 2050ft 23kts
14-Nov-18 20:38 36.078257 -115.124082 89 2037ft 15kts
14-Nov-18 20:39 36.077382 -115.121467 146 2037ft 0kts
14-Nov-18 20:40 36.077382 -115.121467 146 2037ft 0kts
14-Nov-18 20:41 36.076362 -115.122049 275 2038ft 9kts
14-Nov-18 20:42 36.076394 -115.125468 269 2043ft 0kts
14-Nov-18 20:43 36.076361 -115.139149 269 2078ft 128kts
14-Nov-18 20:44 36.076417 -115.195239 268 3461ft 183kts
14-Nov-18 20:45 36.073328 -115.263548 231 4880ft 224kts
14-Nov-18 20:46 36.015249 -115.282570 195 6870ft 237kts
14-Nov-18 20:47 35.949905 -115.324975 223 7875ft 292kts
14-Nov-18 20:48 35.895998 -115.401629 247 9766ft 306kts
14-Nov-18 20:49 35.887933 -115.509005 273 11023ft 333kts
14-Nov-18 20:50 35.890030 -115.622509 274 12572ft 335kts
14-Nov-18 20:51 35.891912 -115.728819 273 14643ft 341kts
14-Nov-18 20:52 35.893837 -115.846342 273 16472ft 348kts
14-Nov-18 20:53 35.906989 -115.963507 299 18200ft 348kts
14-Nov-18 20:54 35.967767 -116.053571 319 19905ft 348kts
14-Nov-18 20:55 36.038782 -116.135424 318 21459ft 353kts
14-Nov-18 20:56 36.110480 -116.218190 318 22852ft 358kts
14-Nov-18 20:57 36.183593 -116.302809 318 24144ft 363kts
14-Nov-18 20:58 36.257363 -116.388407 318 25338ft 367kts
14-Nov-18 20:59 36.332253 -116.475535 318 26360ft 373kts
14-Nov-18 21:00 36.408186 -116.564123 318 27346ft 377kts
14-Nov-18 21:01 36.484596 -116.653512 317 28238ft 380kts
14-Nov-18 21:02 36.561660 -116.743775 320 29061ft 383kts
14-Nov-18 21:03 36.650177 -116.813712 328 30226ft 374kts
14-Nov-18 21:04 36.738331 -116.880497 328 31101ft 372kts
14-Nov-18 21:05 36.812146 -116.936697 328 31592ft 375kts
14-Nov-18 21:06 36.914952 -117.015224 328 32542ft 371kts
14-Nov-18 21:07 36.987733 -117.070975 328 33155ft 368kts
14-Nov-18 21:08 37.074370 -117.137505 328 33834ft 365kts
14-Nov-18 21:09 37.160473 -117.203798 328 34405ft 365kts
14-Nov-18 21:10 37.248643 -117.271853 328 34380ft 381kts
14-Nov-18 21:11 37.335884 -117.349817 319 34404ft 394kts
14-Nov-18 21:12 37.419960 -117.440335 320 34405ft 405kts
14-Nov-18 21:13 37.487753 -117.552974 295 34402ft 412kts
14-Nov-18 21:14 37.508895 -117.695515 279 34369ft 420kts
14-Nov-18 21:15 37.520665 -117.841544 279 34366ft 418kts
14-Nov-18 21:16 37.532298 -117.987212 279 34365ft 419kts
14-Nov-18 21:17 37.543746 -118.132538 279 34364ft 418kts
14-Nov-18 21:18 37.555043 -118.278088 279 34354ft 413kts
14-Nov-18 21:19 37.565763 -118.418614 279 34363ft 405kts
14-Nov-18 21:20 37.576361 -118.559388 279 34452ft 399kts
14-Nov-18 21:21 37.585697 -118.685351 279 34469ft 398kts
14-Nov-18 21:22 37.595763 -118.824188 278 34466ft 398kts
14-Nov-18 21:23 37.605701 -118.963091 278 34469ft 399kts
14-Nov-18 21:24 37.615500 -119.102413 278 34464ft 399kts
14-Nov-18 21:25 37.625114 -119.241085 278 34464ft 398kts
14-Nov-18 21:26 37.634622 -119.380199 278 34461ft 398kts
14-Nov-18 21:27 37.643919 -119.518939 278 34462ft 399kts
14-Nov-18 21:28 37.653051 -119.657764 277 34449ft 393kts
14-Nov-18 21:29 37.661696 -119.792719 277 33281ft 388kts
14-Nov-18 21:30 37.670281 -119.928508 277 31729ft 392kts
14-Nov-18 21:31 37.678815 -120.065776 277 30145ft 395kts
14-Nov-18 21:32 37.687263 -120.203989 277 28553ft 398kts
14-Nov-18 21:33 37.695428 -120.340402 277 26936ft 388kts
14-Nov-18 21:34 37.691745 -120.474962 264 25329ft 386kts
14-Nov-18 21:35 37.675824 -120.606057 264 23729ft 379kts
14-Nov-18 21:36 37.660544 -120.734921 263 22140ft 375kts
14-Nov-18 21:37 37.645120 -120.863314 263 20542ft 372kts
14-Nov-18 21:38 37.629613 -120.989779 261 18944ft 366kts
14-Nov-18 21:39 37.612848 -121.114606 261 17345ft 358kts
14-Nov-18 21:40 37.596436 -121.236251 261 15749ft 350kts
14-Nov-18 21:41 37.582005 -121.354992 263 14258ft 342kts
14-Nov-18 21:42 37.568835 -121.469508 263 12792ft 336kts
14-Nov-18 21:43 37.555702 -121.582231 263 11263ft 313kts
14-Nov-18 21:44 37.538854 -121.676631 253 9848ft 292kts
14-Nov-18 21:45 37.515979 -121.771083 254 8387ft 285kts
14-Nov-18 21:46 37.494114 -121.862002 254 7176ft 262kts
14-Nov-18 21:47 37.472078 -121.946865 252 6265ft 254kts
14-Nov-18 21:48 37.472517 -122.028715 297 5403ft 235kts
14-Nov-18 21:49 37.501159 -122.096538 299 4564ft 212kts
14-Nov-18 21:50 37.527322 -122.158249 298 3550ft 186kts
14-Nov-18 21:51 37.550777 -122.213715 298 2580ft 166kts
14-Nov-18 21:52 37.571439 -122.262731 299 1710ft 145kts
14-Nov-18 21:53 37.589841 -122.306348 298 957ft 142kts
14-Nov-18 21:54 37.608124 -122.349835 298 201ft 141kts
14-Nov-18 21:55 37.619922 -122.378683 255 28ft 18kts
14-Nov-18 21:56 37.619368 -122.382071 247 30ft 11kts
14-Nov-18 21:57 37.618016 -122.383919 271 31ft 3kts
14-Nov-18 21:58 37.618028 -122.384060 277 31ft 0kts
14-Nov-18 21:59 37.618028 -122.384060 277 31ft 0kts
14-Nov-18 22:00 37.618028 -122.384060 277 31ft 0kts

Navigation Log

Ident Type
Flight plan parsing failed, navigation log unavailable